Claysburg, PA

5:25 AM EST on January 26, 2015 (GMT -0500)
Portage Boro | Change Station
CLOSE
Current Station
Personal Weather Station
Location: Portage, PA
Elevation: 1690 ft
Nearby Weather Stations
Active Advisory: Winter Weather Advisory Active Notice: Public Information Statement

Elev 1690 ft 40.39 °N, 78.67 °W | Updated 12 seconds ago

Overcast
Overcast
22.6 °F
Feels Like 23 °F
N
0.0
Wind Variable Wind from NNW
Gusts 0.0 mph

Today
High -- | Low -- °F
--% Chance of Precip.
Yesterday
High -- | Low -- °F
Precip. -- in
7:28 AM 5:24 PM
Waxing Crescent, 41% visible
Pressure 29.76 in
Visibility 3.0 miles
Clouds Mostly Cloudy 1400 ft
Overcast 2000 ft
Windchill 23 °F
Dew Point 17 °F
Humidity 79%
Rainfall 0.00 in
Snow Depth Not available.
UV 0 out of 12
Pollen .10 out of 12
Air Quality Not available.
Flu Activity Not available.
SPECI KAOO 260959Z AUTO 05007KT 3SM -SN BR BKN014 OVC020 M05/M07 A2976 RMK AO2 P0000 T10501067

More Conditions Fewer Conditions

Pressure 29.76 in
Visibility 3.0 miles
Clouds Mostly Cloudy 1400 ft
Overcast 2000 ft
Windchill 23 °F
Dew Point 17 °F
Humidity 79%
Rainfall 0.00 in
Snow Depth Not available.
UV 0 out of 12
Pollen .10 out of 12
Air Quality Not available.
Flu Activity Not available.
SPECI KAOO 260959Z AUTO 05007KT 3SM -SN BR BKN014 OVC020 M05/M07 A2976 RMK AO2 P0000 T10501067

More Conditions Fewer Conditions

10-Day Weather Forecast

Almanac

Astronomy

Jan. 26, 2015 Rise Set
Actual Time
Civil Twilight
Nautical Twilight
Astronomical Twilight
Moon
Length of Visible Light
Length of Day
Tomorrow will be .
, % of the Moon is Illuminated

Today's Extremes

State Highs State Lows

Community

WunderPhotos

Upload Photos

1,790,171 photos uploaded!

WunderBlogs® & News

Nearby

Air Quality

  Air Quality AQ Index Pollutant
Not available.

Snow Depth

Station Depth Elevation

Earthquake Activity

City Distance Mag. Time & Date
Minimum magnitude displayed is 2.5.

Coastal Water Temperatures

Place Temperature

Nearby Weather Stations